Meteorología y climatología de Navarra
Datos de la estación - Meteo Navarra

Estación de Goizueta GN

Altitud 142 m.


Datos desde el 07/12/2018 hasta el 08/12/2018 en horario solar
Los datos son PROVISIONALES

Anterior Página 1 de 1 Siguiente Descargar: Formato para Excel 2000 o superior   Formato csv   Formato para OpenOffice Calc
Fecha Temperatura Humedad relativa Radiación global Insolación Precipitación Velocidad viento 10 m Velocidad viento 10 m Dirección viento 10 m
ºC % W/m² s l/m² m/s km/h º
07/12/2018 0:00 5.4 100 - - - - 0.0 - - - - - -
07/12/2018 0:10 5.3 100 - - - - 0.0 - - - - - -
07/12/2018 0:20 5.1 100 - - - - 0.0 - - - - - -
07/12/2018 0:30 4.9 100 - - - - 0.0 - - - - - -
07/12/2018 0:40 4.9 100 - - - - 0.0 - - - - - -
07/12/2018 0:50 4.6 100 - - - - 0.0 - - - - - -
07/12/2018 1:00 4.6 100 - - - - 0.0 - - - - - -
07/12/2018 1:10 4.5 100 - - - - 0.0 - - - - - -
07/12/2018 1:20 4.4 100 - - - - 0.0 - - - - - -
07/12/2018 1:30 4.4 100 - - - - 0.0 - - - - - -
07/12/2018 1:40 4.3 100 - - - - 0.0 - - - - - -
07/12/2018 1:50 3.9 100 - - - - 0.0 - - - - - -
07/12/2018 2:00 3.9 100 - - - - 0.0 - - - - - -
07/12/2018 2:10 3.7 100 - - - - 0.0 - - - - - -
07/12/2018 2:20 3.7 100 - - - - 0.0 - - - - - -
07/12/2018 2:30 3.6 100 - - - - 0.0 - - - - - -
07/12/2018 2:40 3.5 100 - - - - 0.0 - - - - - -
07/12/2018 2:50 3.6 100 - - - - 0.0 - - - - - -
07/12/2018 3:00 3.4 100 - - - - 0.0 - - - - - -
07/12/2018 3:10 3.5 100 - - - - 0.0 - - - - - -
07/12/2018 3:20 3.2 100 - - - - 0.0 - - - - - -
07/12/2018 3:30 3.2 100 - - - - 0.0 - - - - - -
07/12/2018 3:40 3.0 100 - - - - 0.0 - - - - - -
07/12/2018 3:50 3.0 100 - - - - 0.0 - - - - - -
07/12/2018 4:00 2.9 100 - - - - 0.0 - - - - - -
07/12/2018 4:10 2.9 100 - - - - 0.0 - - - - - -
07/12/2018 4:20 2.7 100 - - - - 0.0 - - - - - -
07/12/2018 4:30 2.5 100 - - - - 0.0 - - - - - -
07/12/2018 4:40 2.6 100 - - - - 0.0 - - - - - -
07/12/2018 4:50 2.6 100 - - - - 0.0 - - - - - -
07/12/2018 5:00 2.4 100 - - - - 0.0 - - - - - -
07/12/2018 5:10 2.3 100 - - - - 0.0 - - - - - -
07/12/2018 5:20 2.4 100 - - - - 0.0 - - - - - -
07/12/2018 5:30 2.2 100 - - - - 0.0 - - - - - -
07/12/2018 5:40 2.2 100 - - - - 0.0 - - - - - -
07/12/2018 5:50 1.9 100 - - - - 0.0 - - - - - -
07/12/2018 6:00 2.0 100 - - - - 0.0 - - - - - -
07/12/2018 6:10 1.8 100 - - - - 0.0 - - - - - -
07/12/2018 6:20 1.8 100 - - - - 0.0 - - - - - -
07/12/2018 6:30 1.9 100 - - - - 0.0 - - - - - -
07/12/2018 6:40 1.9 100 - - - - 0.0 - - - - - -
07/12/2018 6:50 1.8 100 - - - - 0.0 - - - - - -
07/12/2018 7:00 1.7 100 - - - - 0.0 - - - - - -
07/12/2018 7:10 1.6 100 - - - - 0.0 - - - - - -
07/12/2018 7:20 1.7 100 - - - - 0.0 - - - - - -
07/12/2018 7:30 1.6 100 - - - - 0.0 - - - - - -
07/12/2018 7:40 1.6 100 - - - - 0.0 - - - - - -
07/12/2018 7:50 1.5 100 - - - - 0.0 - - - - - -
07/12/2018 8:00 1.7 100 - - - - 0.0 - - - - - -
07/12/2018 8:10 1.8 100 - - - - 0.0 - - - - - -
07/12/2018 8:20 1.9 100 - - - - 0.0 - - - - - -
07/12/2018 8:30 1.9 100 - - - - 0.0 - - - - - -
07/12/2018 8:40 2.1 100 - - - - 0.0 - - - - - -
07/12/2018 8:50 2.2 100 - - - - 0.0 - - - - - -
07/12/2018 9:00 2.4 100 - - - - 0.0 - - - - - -
07/12/2018 9:10 2.6 100 - - - - 0.0 - - - - - -
07/12/2018 9:20 2.9 100 - - - - 0.0 - - - - - -
07/12/2018 9:30 3.2 100 - - - - 0.0 - - - - - -
07/12/2018 9:40 3.5 100 - - - - 0.0 - - - - - -
07/12/2018 9:50 4.0 100 - - - - 0.0 - - - - - -
07/12/2018 10:00 5.4 100 - - - - 0.0 - - - - - -
07/12/2018 10:10 6.0 100 - - - - 0.0 - - - - - -
07/12/2018 10:20 6.4 100 - - - - 0.0 - - - - - -
07/12/2018 10:30 7.0 97 - - - - 0.0 - - - - - -
07/12/2018 10:40 8.0 94 - - - - 0.0 - - - - - -
07/12/2018 10:50 8.4 90 - - - - 0.0 - - - - - -
07/12/2018 11:00 9.2 86 - - - - 0.0 - - - - - -
07/12/2018 11:10 9.7 86 - - - - 0.0 - - - - - -
07/12/2018 11:20 10.3 83 - - - - 0.0 - - - - - -
07/12/2018 11:30 11.2 78 - - - - 0.0 - - - - - -
07/12/2018 11:40 11.9 76 - - - - 0.0 - - - - - -
07/12/2018 11:50 12.4 73 - - - - 0.0 - - - - - -
07/12/2018 12:00 13.0 74 - - - - 0.0 - - - - - -
07/12/2018 12:10 13.5 74 - - - - 0.0 - - - - - -
07/12/2018 12:20 13.5 76 - - - - 0.0 - - - - - -
07/12/2018 12:30 13.9 75 - - - - 0.0 - - - - - -
07/12/2018 12:40 15.1 65 - - - - 0.0 - - - - - -
07/12/2018 12:50 16.7 58 - - - - 0.0 - - - - - -
07/12/2018 13:00 17.5 52 - - - - 0.0 - - - - - -
07/12/2018 13:10 17.7 49 - - - - 0.0 - - - - - -
07/12/2018 13:20 17.9 45 - - - - 0.0 - - - - - -
07/12/2018 13:30 17.3 53 - - - - 0.0 - - - - - -
07/12/2018 13:40 17.4 47 - - - - 0.0 - - - - - -
07/12/2018 13:50 17.3 48 - - - - 0.0 - - - - - -
07/12/2018 14:00 17.3 48 - - - - 0.0 - - - - - -
07/12/2018 14:10 17.1 52 - - - - 0.0 - - - - - -
07/12/2018 14:20 17.0 53 - - - - 0.0 - - - - - -
07/12/2018 14:30 16.5 57 - - - - 0.0 - - - - - -
07/12/2018 14:40 15.7 62 - - - - 0.0 - - - - - -
07/12/2018 14:50 15.5 64 - - - - 0.0 - - - - - -
07/12/2018 15:00 15.4 65 - - - - 0.0 - - - - - -
07/12/2018 15:10 14.8 71 - - - - 0.0 - - - - - -
07/12/2018 15:20 14.2 77 - - - - 0.0 - - - - - -
07/12/2018 15:30 13.6 85 - - - - 0.0 - - - - - -
07/12/2018 15:40 13.0 90 - - - - 0.0 - - - - - -
07/12/2018 15:50 12.6 93 - - - - 0.0 - - - - - -
07/12/2018 16:00 12.9 89 - - - - 0.0 - - - - - -
07/12/2018 16:10 13.4 85 - - - - 0.1 - - - - - -
07/12/2018 16:20 13.6 84 - - - - 0.0 - - - - - -
07/12/2018 16:30 13.2 87 - - - - 0.2 - - - - - -
07/12/2018 16:40 12.4 89 - - - - 0.1 - - - - - -
07/12/2018 16:50 12.2 90 - - - - 0.3 - - - - - -
07/12/2018 17:00 12.0 91 - - - - 0.1 - - - - - -
07/12/2018 17:10 11.9 92 - - - - 0.1 - - - - - -
07/12/2018 17:20 11.9 92 - - - - 0.1 - - - - - -
07/12/2018 17:30 11.8 94 - - - - 0.1 - - - - - -
07/12/2018 17:40 11.7 94 - - - - 0.0 - - - - - -
07/12/2018 17:50 11.9 91 - - - - 0.1 - - - - - -
07/12/2018 18:00 12.2 88 - - - - 0.0 - - - - - -
07/12/2018 18:10 11.9 90 - - - - 0.0 - - - - - -
07/12/2018 18:20 11.4 94 - - - - 0.5 - - - - - -
07/12/2018 18:30 11.2 92 - - - - 0.4 - - - - - -
07/12/2018 18:40 11.1 90 - - - - 0.0 - - - - - -
07/12/2018 18:50 11.3 86 - - - - 0.1 - - - - - -
07/12/2018 19:00 11.0 88 - - - - 0.1 - - - - - -
07/12/2018 19:10 10.8 93 - - - - 0.1 - - - - - -
07/12/2018 19:20 10.7 94 - - - - 0.2 - - - - - -
07/12/2018 19:30 10.7 90 - - - - 0.7 - - - - - -
07/12/2018 19:40 10.3 92 - - - - 0.4 - - - - - -
07/12/2018 19:50 10.2 94 - - - - 0.3 - - - - - -
07/12/2018 20:00 10.4 90 - - - - 0.0 - - - - - -
07/12/2018 20:10 10.1 93 - - - - 0.0 - - - - - -
07/12/2018 20:20 10.1 92 - - - - 0.0 - - - - - -
07/12/2018 20:30 10.3 91 - - - - 0.1 - - - - - -
07/12/2018 20:40 10.2 90 - - - - 0.0 - - - - - -
07/12/2018 20:50 10.0 93 - - - - 0.0 - - - - - -
07/12/2018 21:00 9.7 95 - - - - 0.0 - - - - - -
07/12/2018 21:10 9.7 96 - - - - 0.0 - - - - - -
07/12/2018 21:20 9.5 97 - - - - 0.0 - - - - - -
07/12/2018 21:30 9.4 97 - - - - 0.1 - - - - - -
07/12/2018 21:40 9.5 96 - - - - 0.0 - - - - - -
07/12/2018 21:50 9.4 98 - - - - 0.0 - - - - - -
07/12/2018 22:00 9.3 97 - - - - 0.0 - - - - - -
07/12/2018 22:10 9.4 98 - - - - 0.0 - - - - - -
07/12/2018 22:20 9.3 98 - - - - 0.0 - - - - - -
07/12/2018 22:30 9.2 99 - - - - 0.0 - - - - - -
07/12/2018 22:40 9.2 99 - - - - 0.0 - - - - - -
07/12/2018 22:50 9.2 99 - - - - 0.0 - - - - - -
07/12/2018 23:00 9.1 99 - - - - 0.0 - - - - - -
07/12/2018 23:10 9.1 99 - - - - 0.0 - - - - - -
07/12/2018 23:20 9.0 99 - - - - 0.0 - - - - - -
07/12/2018 23:30 9.1 99 - - - - 0.0 - - - - - -
07/12/2018 23:40 9.0 99 - - - - 0.0 - - - - - -
07/12/2018 23:50 9.0 99 - - - - 0.0 - - - - - -
Anterior Página 1 de 1 Siguiente

NOTA: Tipo de datos según el color:
   - Valores diarios o 10 minutos correctos
   - Valores diarios calculados a partir de un número de datos 10 minutos menor que 144 y mayor que 120, o de un número de datos semihorarios menor que 48 y mayor que 40 (caso de las estaciones de Riegos de Navarra y del MARM)
   - Valores diez minutos estimados


Contacto        Enlaces        Aviso legal